Time;durP1;ratioP1;P1;durP2;ratioP2;P2;SDS_P1;SDS_P2;PMS_P1;PMS_P2;Temp;Humidity;BMP_temperature;BMP_pressure;BME280_temperature;BME280_humidity;BME280_pressure;Samples;Min_cycle;Max_cycle;Signal;HPM_P1;HPM_P2
2022/06/07 00:00:49;;;;;;;2.20;0.93;;;;;;;;;;5118594;28;20489;-70
2022/06/07 00:03:17;;;;;;;1.70;0.80;;;;;;;;;;5118722;28;20493;-70
2022/06/07 00:05:45;;;;;;;1.70;0.90;;;;;;;;;;5110141;28;20487;-69
2022/06/07 00:08:16;;;;;;;1.70;0.63;;;;;;;;;;5118734;28;20459;-71
2022/06/07 00:10:48;;;;;;;2.70;0.90;;;;;;;;;;5118359;28;20494;-71
2022/06/07 00:13:16;;;;;;;1.47;0.73;;;;;;;;;;5118768;28;20459;-70
2022/06/07 00:15:45;;;;;;;2.47;0.80;;;;;;;;;;5118639;28;20554;-70
2022/06/07 00:18:16;;;;;;;2.43;0.60;;;;;;;;;;5117997;28;20529;-70
2022/06/07 00:20:47;;;;;;;1.77;0.60;;;;;;;;;;5118278;28;20500;-70
2022/06/07 00:23:16;;;;;;;1.90;0.70;;;;;;;;;;5118724;28;20450;-69
2022/06/07 00:25:46;;;;;;;1.57;0.53;;;;;;;;;;5117829;28;20485;-70
2022/06/07 00:28:14;;;;;;;1.50;0.60;;;;;;;;;;5118736;28;20455;-70
2022/06/07 00:30:42;;;;;;;1.70;0.80;;;;;;;;;;5117308;28;20931;-70
2022/06/07 00:33:10;;;;;;;1.63;0.80;;;;;;;;;;5109976;28;20466;-69
2022/06/07 00:35:39;;;;;;;1.50;0.60;;;;;;;;;;5118567;28;20523;-71
2022/06/07 00:38:07;;;;;;;2.60;0.73;;;;;;;;;;5117244;28;20774;-71
2022/06/07 00:40:35;;;;;;;2.23;0.80;;;;;;;;;;5118209;28;20482;-70
2022/06/07 00:43:03;;;;;;;3.70;0.80;;;;;;;;;;5117038;28;20725;-71
2022/06/07 00:45:30;;;;;;;1.83;0.73;;;;;;;;;;5117900;28;20450;-71
2022/06/07 00:47:58;;;;;;;1.50;0.60;;;;;;;;;;5117227;28;20459;-70
2022/06/07 00:50:28;;;;;;;1.97;0.80;;;;;;;;;;5116728;28;20566;-70
2022/06/07 00:53:01;;;;;;;2.57;0.80;;;;;;;;;;5116842;28;20459;-71
2022/06/07 00:55:29;;;;;;;1.70;0.70;;;;;;;;;;5117267;28;20484;-71
2022/06/07 00:57:57;;;;;;;1.50;0.60;;;;;;;;;;5117149;28;20455;-71
2022/06/07 01:00:25;;;;;;;1.50;0.57;;;;;;;;;;5116941;28;20526;-71
2022/06/07 01:02:55;;;;;;;1.90;0.70;;;;;;;;;;5117744;28;20455;-71
2022/06/07 01:05:23;;;;;;;1.43;0.60;;;;;;;;;;5117732;28;20538;-71
2022/06/07 01:10:46;;;;;;;2.33;0.70;;;;;;;;;;5117046;28;20478;-71
2022/06/07 01:13:18;;;;;;;3.37;0.80;;;;;;;;;;5117192;28;20470;-71
2022/06/07 01:15:46;;;;;;;1.77;0.80;;;;;;;;;;5117058;28;20803;-71
2022/06/07 01:18:16;;;;;;;5.30;0.70;;;;;;;;;;5116736;28;20537;-71
2022/06/07 01:20:43;;;;;;;1.67;0.70;;;;;;;;;;5116557;28;20450;-71
2022/06/07 01:23:12;;;;;;;1.40;0.50;;;;;;;;;;5117022;28;20486;-71
2022/06/07 01:25:40;;;;;;;3.00;0.90;;;;;;;;;;5116891;28;20447;-69
2022/06/07 01:28:10;;;;;;;1.60;0.80;;;;;;;;;;5116918;28;20917;-71
2022/06/07 01:30:38;;;;;;;1.57;0.70;;;;;;;;;;5116587;28;20485;-71
2022/06/07 01:33:06;;;;;;;1.50;0.60;;;;;;;;;;5116506;28;20964;-71
2022/06/07 01:35:34;;;;;;;2.03;0.97;;;;;;;;;;5116667;28;20469;-71
2022/06/07 01:38:05;;;;;;;1.50;0.63;;;;;;;;;;5116022;28;20446;-70
2022/06/07 01:43:19;;;;;;;1.50;0.60;;;;;;;;;;5116218;28;20714;-71
2022/06/07 01:45:47;;;;;;;1.83;0.83;;;;;;;;;;5116709;28;20470;-70
2022/06/07 01:48:14;;;;;;;1.50;0.60;;;;;;;;;;5117202;28;20455;-71
2022/06/07 01:50:42;;;;;;;2.10;0.90;;;;;;;;;;5115934;28;20543;-71
2022/06/07 01:53:10;;;;;;;2.13;0.90;;;;;;;;;;5115710;28;20739;-71
2022/06/07 01:55:39;;;;;;;1.90;0.80;;;;;;;;;;5116809;28;20443;-71
2022/06/07 01:58:06;;;;;;;1.93;0.80;;;;;;;;;;5116603;28;20457;-72
2022/06/07 02:00:34;;;;;;;1.40;0.70;;;;;;;;;;5116579;28;20447;-71
2022/06/07 02:03:01;;;;;;;2.23;0.70;;;;;;;;;;5116433;28;20446;-71
2022/06/07 02:05:30;;;;;;;2.23;1.03;;;;;;;;;;5116000;28;20531;-71
2022/06/07 02:07:58;;;;;;;1.60;0.80;;;;;;;;;;5116660;28;20894;-71
2022/06/07 02:10:26;;;;;;;1.60;0.77;;;;;;;;;;5116052;28;20489;-70
2022/06/07 02:12:55;;;;;;;1.80;0.90;;;;;;;;;;5115942;28;20451;-71
2022/06/07 02:15:23;;;;;;;1.87;0.70;;;;;;;;;;5116211;28;20490;-71
2022/06/07 02:17:50;;;;;;;3.60;0.90;;;;;;;;;;5115302;28;20474;-71
2022/06/07 02:20:19;;;;;;;1.40;0.60;;;;;;;;;;5116099;28;20450;-71
2022/06/07 02:22:47;;;;;;;3.27;1.00;;;;;;;;;;5116107;28;20482;-71
2022/06/07 02:25:14;;;;;;;1.70;0.80;;;;;;;;;;5116964;28;20761;-71
2022/06/07 02:27:42;;;;;;;2.63;0.70;;;;;;;;;;5115689;28;20473;-70
2022/06/07 02:30:12;;;;;;;2.03;1.03;;;;;;;;;;5115978;28;20932;-71
2022/06/07 02:32:40;;;;;;;1.37;0.60;;;;;;;;;;5115556;28;20451;-71
2022/06/07 02:35:09;;;;;;;2.17;0.70;;;;;;;;;;5115742;28;20458;-71
2022/06/07 02:37:40;;;;;;;2.00;0.90;;;;;;;;;;5116071;28;20451;-71
2022/06/07 02:40:09;;;;;;;1.80;0.70;;;;;;;;;;5115539;28;20510;-70
2022/06/07 02:42:38;;;;;;;1.60;0.80;;;;;;;;;;5116321;28;20443;-70
2022/06/07 02:45:07;;;;;;;1.80;0.70;;;;;;;;;;5115660;28;20443;-70
2022/06/07 02:47:36;;;;;;;2.47;0.90;;;;;;;;;;5115647;28;20478;-70
2022/06/07 02:50:04;;;;;;;2.47;0.70;;;;;;;;;;5115534;28;20518;-70
2022/06/07 02:52:32;;;;;;;1.70;0.80;;;;;;;;;;5115658;28;20496;-70
2022/06/07 02:55:00;;;;;;;1.80;0.80;;;;;;;;;;5115917;28;20451;-71
2022/06/07 02:57:28;;;;;;;2.03;0.90;;;;;;;;;;5116082;28;20451;-70
2022/06/07 02:59:56;;;;;;;2.40;0.90;;;;;;;;;;5115432;28;20775;-70
2022/06/07 03:02:23;;;;;;;5.93;0.90;;;;;;;;;;5116298;28;20455;-70
2022/06/07 03:04:52;;;;;;;2.03;0.90;;;;;;;;;;5119834;28;20438;-70
2022/06/07 03:07:20;;;;;;;1.47;0.63;;;;;;;;;;5119500;28;20447;-70
2022/06/07 03:09:48;;;;;;;3.57;0.93;;;;;;;;;;5119703;28;20477;-70
2022/06/07 03:12:17;;;;;;;1.60;0.80;;;;;;;;;;5119245;28;20485;-70
2022/06/07 03:14:44;;;;;;;1.60;0.80;;;;;;;;;;5118891;28;20888;-70
2022/06/07 03:17:12;;;;;;;1.57;0.70;;;;;;;;;;5119630;28;21476;-70
2022/06/07 03:19:40;;;;;;;1.90;0.90;;;;;;;;;;5119163;28;20824;-70
2022/06/07 03:22:09;;;;;;;2.73;1.23;;;;;;;;;;5119139;28;20462;-70
2022/06/07 03:24:37;;;;;;;1.93;1.10;;;;;;;;;;5119100;28;20443;-70
2022/06/07 03:27:05;;;;;;;2.20;1.20;;;;;;;;;;5111474;28;20454;-70
2022/06/07 03:29:33;;;;;;;2.53;1.20;;;;;;;;;;5119410;28;20450;-70
2022/06/07 03:32:07;;;;;;;2.90;1.13;;;;;;;;;;5119063;28;20470;-71
2022/06/07 03:34:41;;;;;;;2.57;1.37;;;;;;;;;;5119356;28;20704;-70
2022/06/07 03:37:12;;;;;;;2.67;1.30;;;;;;;;;;5119089;28;20454;-70
2022/06/07 03:39:40;;;;;;;3.07;1.60;;;;;;;;;;5118786;28;20463;-71
2022/06/07 03:42:12;;;;;;;2.00;1.07;;;;;;;;;;5119521;28;20443;-70
2022/06/07 03:44:40;;;;;;;2.63;1.17;;;;;;;;;;5119997;28;20469;-70
2022/06/07 03:47:08;;;;;;;2.07;1.27;;;;;;;;;;5119095;28;20575;-71
2022/06/07 03:49:36;;;;;;;2.23;1.10;;;;;;;;;;5119258;28;20455;-71
2022/06/07 03:52:03;;;;;;;1.90;1.10;;;;;;;;;;5118975;28;20483;-71
2022/06/07 03:54:33;;;;;;;2.50;1.27;;;;;;;;;;5119088;28;20859;-70
2022/06/07 03:57:00;;;;;;;2.43;1.40;;;;;;;;;;5118861;28;20792;-70
2022/06/07 03:59:31;;;;;;;3.00;1.70;;;;;;;;;;5118385;28;20454;-71
2022/06/07 04:02:01;;;;;;;3.10;1.37;;;;;;;;;;5106833;27;20440;-71
2022/06/07 04:04:29;;;;;;;2.47;1.37;;;;;;;;;;5097606;28;20458;-70
2022/06/07 04:09:43;;;;;;;2.43;1.63;;;;;;;;;;5117710;28;20461;-70
2022/06/07 04:12:13;;;;;;;2.77;1.60;;;;;;;;;;5118141;28;20479;-71
2022/06/07 04:14:41;;;;;;;2.60;1.70;;;;;;;;;;5117176;28;20462;-70
2022/06/07 04:17:12;;;;;;;2.40;1.20;;;;;;;;;;5118510;28;20482;-70
2022/06/07 04:19:41;;;;;;;3.90;1.33;;;;;;;;;;5117857;28;20513;-71
2022/06/07 04:22:09;;;;;;;3.17;2.43;;;;;;;;;;5117586;28;20527;-70
2022/06/07 04:24:37;;;;;;;2.90;1.80;;;;;;;;;;5112855;28;20779;-70
2022/06/07 04:27:06;;;;;;;3.50;1.63;;;;;;;;;;5117469;28;20991;-70
2022/06/07 04:29:34;;;;;;;2.60;1.97;;;;;;;;;;5118029;28;20451;-70
2022/06/07 04:32:04;;;;;;;3.03;1.93;;;;;;;;;;5117616;28;20953;-71
2022/06/07 04:34:35;;;;;;;2.20;1.60;;;;;;;;;;5117080;28;20502;-70
2022/06/07 04:37:05;;;;;;;2.33;1.50;;;;;;;;;;5117724;28;20458;-70
2022/06/07 04:39:34;;;;;;;2.20;1.60;;;;;;;;;;5116660;28;20450;-71
2022/06/07 04:42:01;;;;;;;2.67;1.70;;;;;;;;;;5117327;28;20447;-70
2022/06/07 04:44:33;;;;;;;2.50;1.43;;;;;;;;;;5118086;28;20526;-71
2022/06/07 04:47:01;;;;;;;2.30;1.57;;;;;;;;;;5109084;28;20462;-70
2022/06/07 04:49:29;;;;;;;2.50;1.47;;;;;;;;;;5117635;28;20450;-71
2022/06/07 04:51:56;;;;;;;2.50;1.80;;;;;;;;;;5116139;28;20493;-70
2022/06/07 04:54:24;;;;;;;2.97;1.90;;;;;;;;;;5114548;28;20554;-70
2022/06/07 04:56:52;;;;;;;3.83;1.60;;;;;;;;;;5113087;28;20539;-70
2022/06/07 04:59:20;;;;;;;2.87;1.77;;;;;;;;;;5110645;28;20473;-70
2022/06/07 05:01:49;;;;;;;5.37;2.77;;;;;;;;;;5117232;28;20466;-70
2022/06/07 05:04:17;;;;;;;3.40;2.30;;;;;;;;;;5113232;28;20458;-70
2022/06/07 05:06:46;;;;;;;4.60;1.93;;;;;;;;;;5117276;28;20447;-70
2022/06/07 05:09:15;;;;;;;3.30;2.17;;;;;;;;;;5116509;28;20827;-70
2022/06/07 05:11:43;;;;;;;3.37;2.20;;;;;;;;;;5116706;28;20493;-71
2022/06/07 05:14:10;;;;;;;3.13;2.40;;;;;;;;;;5115810;28;20543;-71
2022/06/07 05:16:39;;;;;;;4.53;2.53;;;;;;;;;;5114608;28;20515;-71
2022/06/07 05:19:10;;;;;;;4.23;2.50;;;;;;;;;;5115747;28;20462;-71
2022/06/07 05:21:38;;;;;;;4.70;3.67;;;;;;;;;;5116015;28;20443;-71
2022/06/07 05:24:06;;;;;;;4.43;3.70;;;;;;;;;;5115335;28;20459;-71
2022/06/07 05:26:37;;;;;;;8.20;3.23;;;;;;;;;;5115202;28;20523;-71
2022/06/07 05:29:06;;;;;;;6.83;3.57;;;;;;;;;;5115345;28;20487;-71
2022/06/07 05:31:34;;;;;;;6.13;3.27;;;;;;;;;;5116806;28;20478;-71
2022/06/07 05:34:01;;;;;;;5.83;3.17;;;;;;;;;;5114986;28;20486;-70
2022/06/07 05:36:31;;;;;;;3.80;2.83;;;;;;;;;;5114429;28;20447;-71
2022/06/07 05:38:58;;;;;;;4.50;3.57;;;;;;;;;;5114542;28;20450;-71
2022/06/07 05:41:28;;;;;;;5.37;3.23;;;;;;;;;;5114770;28;20470;-71
2022/06/07 05:43:55;;;;;;;4.37;3.33;;;;;;;;;;5114100;28;20777;-71
2022/06/07 05:46:26;;;;;;;3.70;2.90;;;;;;;;;;5114292;28;20460;-71
2022/06/07 05:48:54;;;;;;;4.13;3.07;;;;;;;;;;5113628;28;20756;-72
2022/06/07 05:51:21;;;;;;;5.13;3.17;;;;;;;;;;5114846;28;20948;-71
2022/06/07 05:53:53;;;;;;;4.07;3.10;;;;;;;;;;5114768;28;20855;-71
2022/06/07 05:56:21;;;;;;;7.57;4.00;;;;;;;;;;5113551;28;20489;-71
2022/06/07 05:58:49;;;;;;;3.10;2.50;;;;;;;;;;5109941;28;20468;-70
2022/06/07 06:01:17;;;;;;;6.20;3.50;;;;;;;;;;5093988;28;20455;-71
2022/06/07 06:03:45;;;;;;;4.57;3.07;;;;;;;;;;5094737;28;20542;-70
2022/06/07 06:06:13;;;;;;;4.57;2.83;;;;;;;;;;5093747;28;20464;-70
2022/06/07 06:11:30;;;;;;;8.67;4.03;;;;;;;;;;5106994;28;20507;-72
2022/06/07 06:13:58;;;;;;;8.60;4.43;;;;;;;;;;5113761;28;20461;-72
2022/06/07 06:16:27;;;;;;;6.37;4.70;;;;;;;;;;5113656;28;21072;-72
2022/06/07 06:18:56;;;;;;;5.67;4.00;;;;;;;;;;5114540;28;20474;-72
2022/06/07 06:21:25;;;;;;;4.27;3.70;;;;;;;;;;5113739;28;20500;-72
2022/06/07 06:23:52;;;;;;;6.83;3.70;;;;;;;;;;5111702;28;20472;-71
2022/06/07 06:26:22;;;;;;;5.33;3.90;;;;;;;;;;5111747;28;20456;-72
2022/06/07 06:28:51;;;;;;;9.63;5.23;;;;;;;;;;5114268;28;20511;-72
2022/06/07 06:31:20;;;;;;;4.40;3.50;;;;;;;;;;5114130;28;20493;-71
2022/06/07 06:33:49;;;;;;;4.73;4.07;;;;;;;;;;5114306;28;20455;-72
2022/06/07 06:36:18;;;;;;;8.60;4.80;;;;;;;;;;5113561;28;20451;-71
2022/06/07 06:38:47;;;;;;;5.83;3.33;;;;;;;;;;5113261;28;20512;-70
2022/06/07 06:41:18;;;;;;;6.57;3.60;;;;;;;;;;5114187;28;20508;-72
2022/06/07 06:43:46;;;;;;;7.70;3.70;;;;;;;;;;5112679;28;20520;-72
2022/06/07 06:46:20;;;;;;;6.13;4.03;;;;;;;;;;5113908;28;20462;-73
2022/06/07 06:48:52;;;;;;;4.80;2.73;;;;;;;;;;5113339;28;20446;-72
2022/06/07 06:51:21;;;;;;;5.63;3.50;;;;;;;;;;5113984;28;20485;-72
2022/06/07 06:53:49;;;;;;;6.53;3.10;;;;;;;;;;5114316;28;20813;-70
2022/06/07 06:56:18;;;;;;;7.17;3.93;;;;;;;;;;5113363;28;20462;-71
2022/06/07 06:58:47;;;;;;;4.23;2.87;;;;;;;;;;5114022;28;20450;-71
2022/06/07 07:01:18;;;;;;;4.83;2.83;;;;;;;;;;5114555;28;20557;-71
2022/06/07 07:03:48;;;;;;;6.13;2.50;;;;;;;;;;5114185;28;20829;-72
2022/06/07 07:06:16;;;;;;;6.20;2.20;;;;;;;;;;5106027;28;20454;-71
2022/06/07 07:08:48;;;;;;;4.63;2.37;;;;;;;;;;5113454;28;20553;-71
2022/06/07 07:11:20;;;;;;;4.10;2.40;;;;;;;;;;5113039;28;20587;-71
2022/06/07 07:13:49;;;;;;;3.83;2.47;;;;;;;;;;5110307;28;20511;-70
2022/06/07 07:16:19;;;;;;;5.60;2.90;;;;;;;;;;5112985;28;20458;-69
2022/06/07 07:18:50;;;;;;;3.03;2.07;;;;;;;;;;5114112;28;20561;-71
2022/06/07 07:21:20;;;;;;;9.20;2.33;;;;;;;;;;5109947;28;20583;-72
2022/06/07 07:23:51;;;;;;;3.00;2.17;;;;;;;;;;5099986;28;20537;-71
2022/06/07 07:26:22;;;;;;;4.30;2.00;;;;;;;;;;5113806;28;21110;-71
2022/06/07 07:28:53;;;;;;;6.30;2.20;;;;;;;;;;5114194;28;20936;-71
2022/06/07 07:31:24;;;;;;;4.10;2.17;;;;;;;;;;5113263;28;20545;-71
2022/06/07 07:33:54;;;;;;;4.53;2.23;;;;;;;;;;5110456;28;20882;-70
2022/06/07 07:36:24;;;;;;;4.10;1.67;;;;;;;;;;5108998;28;20440;-71
2022/06/07 07:38:56;;;;;;;3.27;1.97;;;;;;;;;;5112970;28;20527;-72
2022/06/07 07:41:33;;;;;;;4.63;1.63;;;;;;;;;;5112464;28;20885;-71
2022/06/07 07:44:07;;;;;;;5.30;1.63;;;;;;;;;;5106987;28;20538;-71
2022/06/07 07:46:38;;;;;;;3.50;1.47;;;;;;;;;;5110573;28;20458;-71
2022/06/07 07:49:06;;;;;;;2.80;1.80;;;;;;;;;;5112752;28;20458;-70
2022/06/07 07:51:36;;;;;;;3.27;1.80;;;;;;;;;;5115709;28;20936;-70
2022/06/07 07:54:05;;;;;;;4.07;1.90;;;;;;;;;;5115517;28;21089;-70
2022/06/07 07:56:33;;;;;;;4.23;2.20;;;;;;;;;;5115684;28;20557;-71
2022/06/07 07:59:01;;;;;;;4.53;1.80;;;;;;;;;;5116875;28;20446;-72
2022/06/07 08:01:30;;;;;;;3.83;2.10;;;;;;;;;;5112000;27;20517;-70
2022/06/07 08:04:10;;;;;;;3.53;1.93;;;;;;;;;;5116718;27;20527;-71
2022/06/07 08:06:40;;;;;;;6.03;2.97;;;;;;;;;;5115606;28;20504;-71
2022/06/07 08:09:09;;;;;;;2.80;1.40;;;;;;;;;;5116032;28;20522;-71
2022/06/07 08:11:38;;;;;;;4.50;1.90;;;;;;;;;;5115751;28;20450;-71
2022/06/07 08:14:08;;;;;;;2.50;1.20;;;;;;;;;;5116498;28;20473;-71
2022/06/07 08:16:39;;;;;;;4.27;2.00;;;;;;;;;;5115059;28;20449;-71
2022/06/07 08:19:08;;;;;;;3.73;1.40;;;;;;;;;;5115572;28;20463;-71
2022/06/07 08:21:38;;;;;;;3.60;2.40;;;;;;;;;;5115969;28;20445;-70
2022/06/07 08:24:09;;;;;;;6.23;1.50;;;;;;;;;;5115074;28;20870;-72
2022/06/07 08:26:43;;;;;;;6.60;1.20;;;;;;;;;;5116636;28;20451;-72
2022/06/07 08:29:14;;;;;;;3.17;1.87;;;;;;;;;;5116088;28;20443;-72
2022/06/07 08:31:42;;;;;;;5.23;1.43;;;;;;;;;;5114609;28;20892;-71
2022/06/07 08:39:54;;;;;;;2.83;1.50;;;;;;;;;;5110738;27;20459;-71
2022/06/07 08:42:35;;;;;;;6.80;2.37;;;;;;;;;;5111286;28;20889;-70
2022/06/07 08:45:12;;;;;;;4.00;1.33;;;;;;;;;;5109832;27;20447;-71
2022/06/07 08:47:42;;;;;;;3.73;1.70;;;;;;;;;;5117083;27;20454;-72
2022/06/07 08:50:18;;;;;;;4.23;1.90;;;;;;;;;;5119089;27;20783;-69
2022/06/07 08:52:50;;;;;;;2.57;1.90;;;;;;;;;;5115307;27;20496;-70
2022/06/07 08:55:21;;;;;;;4.03;1.23;;;;;;;;;;5124062;27;20535;-71
2022/06/07 08:58:00;;;;;;;3.03;1.37;;;;;;;;;;5109454;28;20506;-72
2022/06/07 09:00:32;;;;;;;4.93;1.60;;;;;;;;;;5112653;28;20714;-70
2022/06/07 09:03:26;;;;;;;4.23;1.67;;;;;;;;;;5114754;28;20511;-70
2022/06/07 09:05:56;;;;;;;3.30;1.50;;;;;;;;;;5106634;28;20462;-72
2022/06/07 09:08:25;;;;;;;2.90;1.47;;;;;;;;;;5117317;27;20447;-70
2022/06/07 09:13:53;;;;;;;2.57;1.40;;;;;;;;;;5110975;27;20535;-71
2022/06/07 09:16:21;;;;;;;5.43;1.80;;;;;;;;;;5111432;27;20465;-71
2022/06/07 09:18:55;;;;;;;3.40;1.30;;;;;;;;;;5109780;27;20495;-71
2022/06/07 09:21:31;;;;;;;4.37;1.73;;;;;;;;;;5114908;27;20497;-71
2022/06/07 09:24:02;;;;;;;8.10;1.70;;;;;;;;;;5115484;27;20454;-71
2022/06/07 09:26:32;;;;;;;3.43;1.80;;;;;;;;;;5116366;27;20569;-71
2022/06/07 09:29:19;;;;;;;5.23;2.13;;;;;;;;;;5110304;27;20546;-70
2022/06/07 09:31:48;;;;;;;2.83;1.40;;;;;;;;;;5107377;27;20533;-70
2022/06/07 09:34:25;;;;;;;2.87;1.57;;;;;;;;;;5108210;28;21176;-70
2022/06/07 09:36:59;;;;;;;2.93;1.60;;;;;;;;;;5109661;28;20451;-70
2022/06/07 09:39:36;;;;;;;4.03;1.70;;;;;;;;;;5111482;27;20468;-70
2022/06/07 09:45:17;;;;;;;3.43;1.47;;;;;;;;;;5111534;27;20455;-70
2022/06/07 09:47:47;;;;;;;4.90;1.80;;;;;;;;;;5109545;27;20455;-70
2022/06/07 09:50:22;;;;;;;2.63;1.37;;;;;;;;;;5112695;27;20546;-70
2022/06/07 09:52:56;;;;;;;2.63;1.37;;;;;;;;;;5105599;28;20547;-70
2022/06/07 09:55:28;;;;;;;2.97;1.20;;;;;;;;;;5106176;28;20530;-70
2022/06/07 09:58:04;;;;;;;4.07;1.47;;;;;;;;;;5113786;28;20531;-72
2022/06/07 10:00:36;;;;;;;2.80;1.47;;;;;;;;;;5105573;28;20446;-70
2022/06/07 10:03:33;;;;;;;2.10;1.40;;;;;;;;;;5105904;28;20451;-71
2022/06/07 10:06:27;;;;;;;3.10;1.47;;;;;;;;;;5076603;28;20455;-70
2022/06/07 10:09:16;;;;;;;4.13;2.00;;;;;;;;;;5108821;28;20455;-72
2022/06/07 10:12:02;;;;;;;4.03;1.43;;;;;;;;;;5079332;28;20467;-71
2022/06/07 10:14:38;;;;;;;3.63;1.37;;;;;;;;;;5117895;27;20881;-72
2022/06/07 10:17:18;;;;;;;5.03;1.30;;;;;;;;;;5116891;27;20476;-71
2022/06/07 10:19:50;;;;;;;3.03;1.33;;;;;;;;;;5107630;27;20524;-70
2022/06/07 10:22:46;;;;;;;3.43;1.30;;;;;;;;;;5105878;28;20537;-71
2022/06/07 10:25:20;;;;;;;2.93;1.50;;;;;;;;;;5110991;28;20481;-71
2022/06/07 10:27:58;;;;;;;2.30;1.47;;;;;;;;;;5108952;28;20942;-72
2022/06/07 10:30:29;;;;;;;2.57;1.57;;;;;;;;;;5111874;28;20562;-71
2022/06/07 10:33:14;;;;;;;3.40;1.40;;;;;;;;;;5109474;28;20479;-72
2022/06/07 10:35:47;;;;;;;3.40;1.30;;;;;;;;;;5108613;28;20480;-71
2022/06/07 10:38:35;;;;;;;3.00;1.60;;;;;;;;;;5109232;28;20746;-72
2022/06/07 10:41:22;;;;;;;2.80;1.47;;;;;;;;;;5108229;28;20447;-72
2022/06/07 10:44:10;;;;;;;2.63;1.57;;;;;;;;;;5108322;28;20451;-71
2022/06/07 10:46:39;;;;;;;7.23;2.33;;;;;;;;;;5114614;28;20634;-72
2022/06/07 10:49:16;;;;;;;4.13;2.30;;;;;;;;;;5112323;28;20475;-72
2022/06/07 10:54:46;;;;;;;6.27;1.70;;;;;;;;;;5067774;28;20456;-71
2022/06/07 10:57:21;;;;;;;3.07;2.37;;;;;;;;;;5115894;28;20446;-71
2022/06/07 11:00:05;;;;;;;4.03;1.70;;;;;;;;;;5108178;28;20976;-71
2022/06/07 11:02:55;;;;;;;3.67;2.10;;;;;;;;;;5113530;28;20473;-72
2022/06/07 11:11:08;;;;;;;2.87;2.10;;;;;;;;;;5112459;28;20438;-71
2022/06/07 11:13:40;;;;;;;3.80;1.97;;;;;;;;;;5111613;28;20481;-72
2022/06/07 11:16:13;;;;;;;3.20;1.83;;;;;;;;;;5110043;28;20458;-73
2022/06/07 11:18:42;;;;;;;2.77;1.97;;;;;;;;;;5108684;28;20461;-72
2022/06/07 11:21:12;;;;;;;5.03;2.07;;;;;;;;;;5111860;28;20511;-71
2022/06/07 11:23:49;;;;;;;5.33;2.33;;;;;;;;;;5113227;28;20450;-73
2022/06/07 11:26:30;;;;;;;4.37;2.23;;;;;;;;;;5109277;28;20876;-72
2022/06/07 11:28:58;;;;;;;3.80;2.20;;;;;;;;;;5115967;28;20454;-72
2022/06/07 11:31:46;;;;;;;5.70;2.43;;;;;;;;;;5116984;28;20446;-71
2022/06/07 11:34:25;;;;;;;4.20;2.70;;;;;;;;;;5109398;28;21025;-71
2022/06/07 11:36:54;;;;;;;5.03;2.37;;;;;;;;;;5117421;28;20446;-71
2022/06/07 11:39:28;;;;;;;3.03;2.30;;;;;;;;;;5116101;28;20457;-74
2022/06/07 11:42:24;;;;;;;7.10;2.83;;;;;;;;;;5107988;28;20463;-71
2022/06/07 11:45:18;;;;;;;10.10;7.53;;;;;;;;;;5110556;28;20516;-71
2022/06/07 11:48:00;;;;;;;2.80;2.20;;;;;;;;;;5115999;28;20451;-72
2022/06/07 11:50:33;;;;;;;5.60;2.60;;;;;;;;;;5099339;28;20465;-71
2022/06/07 11:53:21;;;;;;;3.30;2.30;;;;;;;;;;5113499;28;20482;-71
2022/06/07 11:55:50;;;;;;;4.13;2.50;;;;;;;;;;5114961;28;20450;-71
2022/06/07 11:58:42;;;;;;;5.13;2.47;;;;;;;;;;5114463;28;20459;-71
2022/06/07 12:01:33;;;;;;;4.10;2.27;;;;;;;;;;5114999;28;20454;-73
2022/06/07 12:04:19;;;;;;;4.33;2.37;;;;;;;;;;5115840;28;20472;-73
2022/06/07 12:06:52;;;;;;;7.10;3.33;;;;;;;;;;5108933;28;20455;-71
2022/06/07 12:09:22;;;;;;;4.87;2.20;;;;;;;;;;5114885;28;20458;-69
2022/06/07 12:11:49;;;;;;;2.93;1.83;;;;;;;;;;5111250;28;20478;-71
2022/06/07 12:14:32;;;;;;;2.47;1.60;;;;;;;;;;5114700;28;20478;-72
2022/06/07 12:17:01;;;;;;;3.33;2.00;;;;;;;;;;5114621;28;20890;-71
2022/06/07 12:19:32;;;;;;;4.50;2.53;;;;;;;;;;5114895;28;20446;-72
2022/06/07 12:22:14;;;;;;;2.77;2.03;;;;;;;;;;5112590;28;20450;-73
2022/06/07 12:24:44;;;;;;;3.33;2.00;;;;;;;;;;5107637;28;20484;-71
2022/06/07 12:27:15;;;;;;;4.00;2.10;;;;;;;;;;5114577;28;20781;-72
2022/06/07 12:29:45;;;;;;;3.73;2.07;;;;;;;;;;5114577;28;20496;-71
2022/06/07 12:32:18;;;;;;;3.43;2.20;;;;;;;;;;5115220;28;20455;-73
2022/06/07 12:34:46;;;;;;;3.03;1.80;;;;;;;;;;5112106;28;20861;-71
2022/06/07 12:37:26;;;;;;;2.60;1.93;;;;;;;;;;5114071;28;21100;-71
2022/06/07 12:39:56;;;;;;;2.70;1.80;;;;;;;;;;5099469;28;20866;-72
2022/06/07 12:42:25;;;;;;;4.83;2.10;;;;;;;;;;5111615;28;20462;-71
2022/06/07 12:44:54;;;;;;;4.80;2.00;;;;;;;;;;5114672;28;20470;-72
2022/06/07 12:47:25;;;;;;;3.30;2.07;;;;;;;;;;5115141;28;20466;-71
2022/06/07 12:49:54;;;;;;;2.87;1.80;;;;;;;;;;5106705;28;20535;-71
2022/06/07 12:52:31;;;;;;;5.57;1.90;;;;;;;;;;5110552;28;20458;-72
2022/06/07 12:55:06;;;;;;;3.57;2.20;;;;;;;;;;5114091;28;20501;-73
2022/06/07 12:57:34;;;;;;;4.40;2.40;;;;;;;;;;5117641;27;20484;-72
2022/06/07 13:00:06;;;;;;;3.00;2.23;;;;;;;;;;5114981;27;20462;-72
2022/06/07 13:02:48;;;;;;;4.33;2.27;;;;;;;;;;5114518;27;20939;-72
2022/06/07 13:05:20;;;;;;;2.50;1.70;;;;;;;;;;5113481;27;20542;-72
2022/06/07 13:07:51;;;;;;;2.80;2.20;;;;;;;;;;5110833;27;20489;-72
2022/06/07 13:10:21;;;;;;;3.23;1.80;;;;;;;;;;5115579;27;20484;-73
2022/06/07 13:12:51;;;;;;;3.20;2.00;;;;;;;;;;5112117;27;20451;-72
2022/06/07 13:15:20;;;;;;;3.07;1.53;;;;;;;;;;5117570;27;20447;-72
2022/06/07 13:18:00;;;;;;;3.30;2.30;;;;;;;;;;5106966;27;20454;-71
2022/06/07 13:20:32;;;;;;;2.87;1.70;;;;;;;;;;5112265;27;20447;-71
2022/06/07 13:23:02;;;;;;;6.53;1.80;;;;;;;;;;5113795;28;20558;-71
2022/06/07 13:25:31;;;;;;;2.60;1.73;;;;;;;;;;5112521;28;20550;-71
2022/06/07 13:28:04;;;;;;;2.67;1.80;;;;;;;;;;5111247;28;20462;-72
2022/06/07 13:30:42;;;;;;;3.20;2.23;;;;;;;;;;5110816;27;20465;-71
2022/06/07 13:33:27;;;;;;;3.13;2.03;;;;;;;;;;5113679;27;20492;-71
2022/06/07 13:35:58;;;;;;;2.40;1.40;;;;;;;;;;5114333;27;20504;-72
2022/06/07 13:38:30;;;;;;;4.33;1.83;;;;;;;;;;5113344;27;20567;-72
2022/06/07 13:41:29;;;;;;;3.50;1.83;;;;;;;;;;5112082;27;20540;-72
2022/06/07 13:43:59;;;;;;;3.30;1.57;;;;;;;;;;5106483;28;20444;-73
2022/06/07 13:46:32;;;;;;;3.00;1.60;;;;;;;;;;5105959;28;20827;-72
2022/06/07 13:55:00;;;;;;;6.93;1.77;;;;;;;;;;5110171;28;20660;-72
2022/06/07 13:57:32;;;;;;;2.70;1.70;;;;;;;;;;5110525;28;20478;-72
2022/06/07 14:00:02;;;;;;;7.27;2.50;;;;;;;;;;5106617;28;20932;-72
2022/06/07 14:02:32;;;;;;;5.50;2.17;;;;;;;;;;5108891;28;20541;-72
2022/06/07 14:05:01;;;;;;;4.30;1.73;;;;;;;;;;5113198;28;20457;-72
2022/06/07 14:07:28;;;;;;;3.10;1.80;;;;;;;;;;5112153;28;20449;-72
2022/06/07 14:10:00;;;;;;;4.27;1.77;;;;;;;;;;5112564;28;20469;-73
2022/06/07 14:12:29;;;;;;;4.27;2.03;;;;;;;;;;5112115;28;20832;-72
2022/06/07 14:14:57;;;;;;;4.10;2.30;;;;;;;;;;5109590;28;20518;-72
2022/06/07 14:17:28;;;;;;;4.93;2.33;;;;;;;;;;5112641;28;20454;-71
2022/06/07 14:19:57;;;;;;;4.00;2.37;;;;;;;;;;5109049;28;20519;-71
2022/06/07 14:22:31;;;;;;;3.50;2.37;;;;;;;;;;5111053;28;20812;-72
2022/06/07 14:25:01;;;;;;;2.83;1.93;;;;;;;;;;5109407;28;20537;-72
2022/06/07 14:27:30;;;;;;;2.83;2.10;;;;;;;;;;5112162;28;20520;-71
2022/06/07 14:29:58;;;;;;;3.53;2.40;;;;;;;;;;5113474;28;20451;-72
2022/06/07 14:32:30;;;;;;;4.03;3.00;;;;;;;;;;5113598;27;20446;-74
2022/06/07 14:34:59;;;;;;;4.83;2.77;;;;;;;;;;5113938;28;20479;-72
2022/06/07 14:37:31;;;;;;;5.80;3.90;;;;;;;;;;5112969;28;21024;-71
2022/06/07 14:40:03;;;;;;;6.10;2.93;;;;;;;;;;5113606;28;20542;-71
2022/06/07 14:42:33;;;;;;;2.90;2.00;;;;;;;;;;5112598;28;20447;-71
2022/06/07 14:45:01;;;;;;;4.80;2.30;;;;;;;;;;5106213;28;20494;-71
2022/06/07 14:47:29;;;;;;;4.23;2.30;;;;;;;;;;5103780;28;20482;-71
2022/06/07 14:49:58;;;;;;;4.07;2.70;;;;;;;;;;5112895;28;20466;-72
2022/06/07 14:52:26;;;;;;;6.60;2.93;;;;;;;;;;5114076;28;20451;-70
2022/06/07 14:54:54;;;;;;;4.40;2.73;;;;;;;;;;5114048;28;20547;-71
2022/06/07 14:57:24;;;;;;;3.23;2.80;;;;;;;;;;5107274;28;20458;-71
2022/06/07 14:59:53;;;;;;;3.60;2.50;;;;;;;;;;5110811;28;20466;-71
2022/06/07 15:02:24;;;;;;;4.47;2.80;;;;;;;;;;5110904;28;20458;-72
2022/06/07 15:04:54;;;;;;;6.00;3.00;;;;;;;;;;5116080;28;20468;-71
2022/06/07 15:07:23;;;;;;;5.60;3.23;;;;;;;;;;5116346;28;20446;-71
2022/06/07 15:09:51;;;;;;;5.07;3.33;;;;;;;;;;5114281;28;20534;-72
2022/06/07 15:12:22;;;;;;;5.17;3.63;;;;;;;;;;5111794;28;20454;-72
2022/06/07 15:14:53;;;;;;;4.20;2.90;;;;;;;;;;5116388;28;20906;-71
2022/06/07 15:17:22;;;;;;;7.00;3.30;;;;;;;;;;5115931;28;20486;-71
2022/06/07 15:19:50;;;;;;;7.40;3.33;;;;;;;;;;5110653;28;20451;-72
2022/06/07 15:22:20;;;;;;;5.00;3.37;;;;;;;;;;5115538;27;20524;-72
2022/06/07 15:24:48;;;;;;;5.10;3.27;;;;;;;;;;5118011;27;20535;-72
2022/06/07 15:27:23;;;;;;;4.07;3.40;;;;;;;;;;5112408;28;20486;-71
2022/06/07 15:29:53;;;;;;;6.60;4.00;;;;;;;;;;5109919;28;20458;-72
2022/06/07 15:32:22;;;;;;;4.80;4.03;;;;;;;;;;5116170;28;20830;-71
2022/06/07 15:34:54;;;;;;;3.70;3.10;;;;;;;;;;5110910;27;20502;-71
2022/06/07 15:37:24;;;;;;;4.50;3.40;;;;;;;;;;5109212;28;20457;-72
2022/06/07 15:39:52;;;;;;;5.83;3.80;;;;;;;;;;5110005;28;20841;-71
2022/06/07 15:42:51;;;;;;;9.33;4.30;;;;;;;;;;5111386;27;20436;-71
2022/06/07 15:45:24;;;;;;;4.87;3.47;;;;;;;;;;5115820;28;20803;-71